ADDS METAR Data INFO
IDs: Format: Raw Decoded Include TAF

Data at: 2344 UTC 15 Dec 2017

KSAV 152253Z 25008KT 10SM BKN150 13/06 A3005 RMK AO2 SLP174 T01280056
KSAV 152153Z 24007KT 10SM BKN110 14/06 A3003 RMK AO2 SLP170 T01390061
KSAV 152053Z 26010KT 10SM BKN100 OVC220 14/06 A3003 RMK AO2 SLP168 T01440061 53007
KSAV 151953Z 27014G23KT 10SM BKN130 OVC220 16/04 A3002 RMK AO2 SLP165 T01560044
KSAV 151853Z 26008KT 10SM BKN120 BKN220 16/06 A2999 RMK AO2 SLP156 T01610056
KSAV 151753Z 28008KT 10SM BKN120 BKN220 17/05 A3001 RMK AO2 SLP161 T01670050 10172 20061 58015
KSAV 151653Z 26008KT 10SM BKN120 BKN220 17/04 A3002 RMK AO2 SLP166 T01720044
KSAV 151553Z 26007KT 10SM BKN130 BKN220 16/06 A3005 RMK AO2 SLP175 T01560056
KSAV 151453Z 26005KT 10SM BKN160 OVC220 12/06 A3005 RMK AO2 SLP176 BINOVC T01170056 53010
KSAV 151353Z 23005KT 10SM BKN180 11/06 A3003 RMK AO2 SLP169 T01060061
KSAV 151253Z 00000KT 10SM BKN180 08/05 A3003 RMK AO2 SLP168 T00780050
KSAV 151153Z 20003KT 10SM BKN200 BKN250 07/04 A3002 RMK AO2 SLP166 T00720039 10094 20072 53003
KSAV 151053Z 00000KT 10SM BKN210 08/04 A3002 RMK AO2 SLP165 T00780039
KSAV 150953Z AUTO 00000KT 10SM CLR 08/04 A3001 RMK AO2 SLP162 T00830039
KSAV 150853Z AUTO 00000KT 10SM CLR 08/04 A3002 RMK AO2 SLP164 T00830044 58002
KSAV 150753Z AUTO 00000KT 10SM CLR 09/04 A3002 RMK AO2 SLP166 T00890039
KSAV 150653Z AUTO 25005KT 10SM CLR 09/04 A3002 RMK AO2 SLP165 T00890039
KSAV 150553Z AUTO 26005KT 10SM CLR 09/04 A3002 RMK AO2 SLP166 T00890039 10122 20083 58000
KSAV 150453Z 00000KT 10SM BKN190 10/03 A3003 RMK AO2 SLP167 LAST T01000033 401890033
KSAV 150353Z 21004KT 10SM BKN190 10/04 A3004 RMK AO2 SLP171 T01000039
KSAV 150253Z 20006KT 10SM SCT190 11/03 A3002 RMK AO2 SLP166 T01060033 51010
KSAV 150153Z 24003KT 10SM BKN190 12/04 A3002 RMK AO2 SLP165 T01170039
KSAV 150053Z 00000KT 10SM SCT220 OVC250 12/03 A3001 RMK AO2 SLP163 T01170033
KSAV 142353Z 22005KT 10SM SCT220 OVC250 11/03 A2999 RMK AO2 SLP157 T01110033 10189 20111 53017
KSAV 142253Z 21005KT 10SM SCT220 OVC250 14/02 A2997 RMK AO2 SLP149 T01390022
KSAV 142153Z 23005KT 10SM SCT220 OVC250 16/02 A2996 RMK AO2 SLP143 T01560022
KSAV 142053Z 24011KT 10SM SCT220 BKN250 18/01 A2995 RMK AO2 SLP139 T01780011 53001
KSAV 141953Z 26008KT 10SM SCT220 BKN250 17/02 A2994 RMK AO2 SLP136 T01670017
KSAV 141853Z 25009KT 10SM SCT220 BKN250 18/02 A2993 RMK AO2 SLP135 T01780017
KSAV 141753Z 24006KT 10SM FEW220 BKN250 17/01 A2994 RMK AO2 SLP138 T01670011 10172 20033 58016
KSAV 141653Z 28008KT 10SM SCT220 BKN250 15/02 A2997 RMK AO2 SLP148 T01500017
KSAV 141553Z 28009KT 10SM FEW220 BKN250 13/01 A2999 RMK AO2 SLP153 T01280011
KSAV 141453Z 26009KT 10SM FEW220 BKN250 11/02 A2999 RMK AO2 SLP154 T01110022 51015
KSAV 141353Z 25008KT 10SM BKN250 07/02 A2998 RMK AO2 SLP151 T00720022
KSAV 141253Z 24006KT 10SM BKN250 05/02 A2996 RMK AO2 SLP146 T00500022
KSAV 141153Z 25006KT 10SM BKN250 03/01 A2995 RMK AO2 SLP141 T00330011 10061 20033 55000